Jard de Patillas, Puerto Rico
Current Conditions -  °F | °C
As of 7:56 AM on Thursday 29 Jan 2015 (Local Time) from TJSJ Reporting Station
Broken Clouds Broken Clouds  
Wind Chill: 76°   Ceiling: 8000
Heat Index: 76°   Visibility: 10mi
Dew Point: 72°   Wind: 3mph
Humidity: 87%   Direction: 280°W
Pressure: 30.02"   Gusts: NA
Location:  18.0086°N, 66.0144°W
Report Text: TJSJ 291156Z 28003KT 10SM FEW027 BKN080 24/22 A3002 RMK AO2 SLP164 T02440222 10250 20233 52018
Loading
Personal Weather Stations






























Interactive Weather Map New forecast layout! Learn more

10-Day Weather Forecast

Advertisements
Track Severe Weather on mobile